sensor_id;sensor_type;location;lat;lon;timestamp;P1;durP1;ratioP1;P2;durP2;ratioP2
73276;SDS011;61501;43.316;5.372;2022-08-24T00:00:51;4.82;;;2.72;;
73276;SDS011;61501;43.316;5.372;2022-08-24T00:03:17;4.70;;;2.83;;
73276;SDS011;61501;43.316;5.372;2022-08-24T00:05:43;4.28;;;2.85;;
73276;SDS011;61501;43.316;5.372;2022-08-24T00:08:09;6.05;;;3.08;;
73276;SDS011;61501;43.316;5.372;2022-08-24T00:10:36;5.18;;;3.95;;
73276;SDS011;61501;43.316;5.372;2022-08-24T00:13:02;4.72;;;3.85;;
73276;SDS011;61501;43.316;5.372;2022-08-24T00:15:28;5.35;;;2.88;;
73276;SDS011;61501;43.316;5.372;2022-08-24T00:17:54;7.30;;;5.82;;
73276;SDS011;61501;43.316;5.372;2022-08-24T00:20:20;4.80;;;3.50;;
73276;SDS011;61501;43.316;5.372;2022-08-24T00:22:46;4.70;;;2.88;;
73276;SDS011;61501;43.316;5.372;2022-08-24T00:25:12;3.67;;;3.05;;
73276;SDS011;61501;43.316;5.372;2022-08-24T00:27:39;5.75;;;2.88;;
73276;SDS011;61501;43.316;5.372;2022-08-24T00:30:07;4.65;;;2.80;;
73276;SDS011;61501;43.316;5.372;2022-08-24T00:32:33;4.68;;;2.55;;
73276;SDS011;61501;43.316;5.372;2022-08-24T00:35:01;3.45;;;2.90;;
73276;SDS011;61501;43.316;5.372;2022-08-24T00:37:27;4.97;;;2.85;;
73276;SDS011;61501;43.316;5.372;2022-08-24T00:39:54;5.15;;;2.83;;
73276;SDS011;61501;43.316;5.372;2022-08-24T00:42:20;4.60;;;2.67;;
73276;SDS011;61501;43.316;5.372;2022-08-24T00:44:46;6.13;;;2.97;;
73276;SDS011;61501;43.316;5.372;2022-08-24T00:47:15;4.35;;;2.70;;
73276;SDS011;61501;43.316;5.372;2022-08-24T00:49:49;4.00;;;2.60;;
73276;SDS011;61501;43.316;5.372;2022-08-24T00:52:32;4.22;;;2.70;;
73276;SDS011;61501;43.316;5.372;2022-08-24T00:55:00;6.35;;;3.00;;
73276;SDS011;61501;43.316;5.372;2022-08-24T00:57:28;6.57;;;2.85;;
73276;SDS011;61501;43.316;5.372;2022-08-24T00:59:58;3.95;;;2.95;;
73276;SDS011;61501;43.316;5.372;2022-08-24T01:02:30;6.00;;;2.97;;
73276;SDS011;61501;43.316;5.372;2022-08-24T01:04:58;3.33;;;2.60;;
73276;SDS011;61501;43.316;5.372;2022-08-24T01:07:25;3.28;;;2.50;;
73276;SDS011;61501;43.316;5.372;2022-08-24T01:09:51;3.88;;;2.90;;
73276;SDS011;61501;43.316;5.372;2022-08-24T01:12:18;6.45;;;3.08;;
73276;SDS011;61501;43.316;5.372;2022-08-24T01:14:45;6.40;;;2.80;;
73276;SDS011;61501;43.316;5.372;2022-08-24T01:17:11;3.63;;;2.45;;
73276;SDS011;61501;43.316;5.372;2022-08-24T01:19:56;4.28;;;2.70;;
73276;SDS011;61501;43.316;5.372;2022-08-24T01:22:37;3.58;;;2.33;;
73276;SDS011;61501;43.316;5.372;2022-08-24T01:25:05;4.13;;;2.70;;
73276;SDS011;61501;43.316;5.372;2022-08-24T01:27:32;5.25;;;3.00;;
73276;SDS011;61501;43.316;5.372;2022-08-24T01:29:59;2.60;;;2.25;;
73276;SDS011;61501;43.316;5.372;2022-08-24T01:32:26;4.18;;;2.47;;
73276;SDS011;61501;43.316;5.372;2022-08-24T01:34:53;4.53;;;2.80;;
73276;SDS011;61501;43.316;5.372;2022-08-24T01:37:19;4.97;;;2.60;;
73276;SDS011;61501;43.316;5.372;2022-08-24T01:39:46;4.80;;;2.80;;
73276;SDS011;61501;43.316;5.372;2022-08-24T01:42:13;4.45;;;2.70;;
73276;SDS011;61501;43.316;5.372;2022-08-24T01:44:40;6.65;;;4.80;;
73276;SDS011;61501;43.316;5.372;2022-08-24T01:47:06;11.98;;;9.25;;
73276;SDS011;61501;43.316;5.372;2022-08-24T01:49:34;14.45;;;12.32;;
73276;SDS011;61501;43.316;5.372;2022-08-24T01:52:01;17.70;;;13.57;;
73276;SDS011;61501;43.316;5.372;2022-08-24T01:54:27;18.23;;;15.23;;
73276;SDS011;61501;43.316;5.372;2022-08-24T01:56:53;21.25;;;16.85;;
73276;SDS011;61501;43.316;5.372;2022-08-24T01:59:19;24.65;;;17.67;;
73276;SDS011;61501;43.316;5.372;2022-08-24T02:01:46;20.10;;;15.90;;
73276;SDS011;61501;43.316;5.372;2022-08-24T02:04:13;21.15;;;16.10;;
73276;SDS011;61501;43.316;5.372;2022-08-24T02:06:39;18.42;;;13.57;;
73276;SDS011;61501;43.316;5.372;2022-08-24T02:09:08;17.95;;;12.90;;
73276;SDS011;61501;43.316;5.372;2022-08-24T02:11:34;14.48;;;11.88;;
73276;SDS011;61501;43.316;5.372;2022-08-24T02:14:01;16.38;;;11.25;;
73276;SDS011;61501;43.316;5.372;2022-08-24T02:16:27;15.77;;;11.05;;
73276;SDS011;61501;43.316;5.372;2022-08-24T02:18:53;13.73;;;9.43;;
73276;SDS011;61501;43.316;5.372;2022-08-24T02:21:20;11.93;;;7.93;;
73276;SDS011;61501;43.316;5.372;2022-08-24T02:23:46;12.05;;;7.47;;
73276;SDS011;61501;43.316;5.372;2022-08-24T02:26:12;9.45;;;7.13;;
73276;SDS011;61501;43.316;5.372;2022-08-24T02:28:38;10.02;;;6.35;;
73276;SDS011;61501;43.316;5.372;2022-08-24T02:31:05;8.75;;;6.38;;
73276;SDS011;61501;43.316;5.372;2022-08-24T02:33:32;8.65;;;5.85;;
73276;SDS011;61501;43.316;5.372;2022-08-24T02:35:59;9.93;;;5.50;;
73276;SDS011;61501;43.316;5.372;2022-08-24T02:38:25;8.63;;;5.72;;
73276;SDS011;61501;43.316;5.372;2022-08-24T02:40:51;6.82;;;5.63;;
73276;SDS011;61501;43.316;5.372;2022-08-24T02:43:17;8.73;;;5.32;;
73276;SDS011;61501;43.316;5.372;2022-08-24T02:45:44;10.13;;;5.60;;
73276;SDS011;61501;43.316;5.372;2022-08-24T02:48:10;7.25;;;4.57;;
73276;SDS011;61501;43.316;5.372;2022-08-24T02:50:37;4.32;;;3.53;;
73276;SDS011;61501;43.316;5.372;2022-08-24T02:53:03;6.20;;;3.83;;
73276;SDS011;61501;43.316;5.372;2022-08-24T02:55:29;3.50;;;3.03;;
73276;SDS011;61501;43.316;5.372;2022-08-24T02:57:55;4.15;;;3.15;;
73276;SDS011;61501;43.316;5.372;2022-08-24T03:00:21;5.68;;;3.20;;
73276;SDS011;61501;43.316;5.372;2022-08-24T03:02:47;4.53;;;2.90;;
73276;SDS011;61501;43.316;5.372;2022-08-24T03:05:13;5.55;;;3.00;;
73276;SDS011;61501;43.316;5.372;2022-08-24T03:07:40;4.28;;;2.95;;
73276;SDS011;61501;43.316;5.372;2022-08-24T03:10:07;5.90;;;3.80;;
73276;SDS011;61501;43.316;5.372;2022-08-24T03:12:33;5.35;;;3.88;;
73276;SDS011;61501;43.316;5.372;2022-08-24T03:14:59;9.18;;;6.30;;
73276;SDS011;61501;43.316;5.372;2022-08-24T03:17:29;7.10;;;5.97;;
73276;SDS011;61501;43.316;5.372;2022-08-24T03:19:57;12.02;;;9.07;;
73276;SDS011;61501;43.316;5.372;2022-08-24T03:22:24;19.55;;;9.65;;
73276;SDS011;61501;43.316;5.372;2022-08-24T03:24:50;12.60;;;9.02;;
73276;SDS011;61501;43.316;5.372;2022-08-24T03:27:16;15.77;;;11.18;;
73276;SDS011;61501;43.316;5.372;2022-08-24T03:29:42;16.33;;;11.57;;
73276;SDS011;61501;43.316;5.372;2022-08-24T03:32:08;20.25;;;13.57;;
73276;SDS011;61501;43.316;5.372;2022-08-24T03:34:34;18.23;;;13.90;;
73276;SDS011;61501;43.316;5.372;2022-08-24T03:37:01;15.38;;;12.85;;
73276;SDS011;61501;43.316;5.372;2022-08-24T03:39:27;13.88;;;11.73;;
73276;SDS011;61501;43.316;5.372;2022-08-24T03:41:54;14.90;;;11.65;;
73276;SDS011;61501;43.316;5.372;2022-08-24T03:44:20;15.32;;;10.73;;
73276;SDS011;61501;43.316;5.372;2022-08-24T03:46:49;13.73;;;10.68;;
73276;SDS011;61501;43.316;5.372;2022-08-24T03:49:16;13.05;;;9.68;;
73276;SDS011;61501;43.316;5.372;2022-08-24T03:51:43;11.13;;;8.50;;
73276;SDS011;61501;43.316;5.372;2022-08-24T03:54:09;14.35;;;9.43;;
73276;SDS011;61501;43.316;5.372;2022-08-24T03:56:35;14.65;;;9.85;;
73276;SDS011;61501;43.316;5.372;2022-08-24T03:59:02;10.27;;;6.80;;
73276;SDS011;61501;43.316;5.372;2022-08-24T04:01:29;6.55;;;4.72;;
73276;SDS011;61501;43.316;5.372;2022-08-24T04:03:55;9.45;;;4.53;;
73276;SDS011;61501;43.316;5.372;2022-08-24T04:06:22;5.07;;;3.53;;
73276;SDS011;61501;43.316;5.372;2022-08-24T04:08:49;6.03;;;4.15;;
73276;SDS011;61501;43.316;5.372;2022-08-24T04:11:17;5.93;;;3.42;;
73276;SDS011;61501;43.316;5.372;2022-08-24T04:13:44;5.70;;;2.97;;
73276;SDS011;61501;43.316;5.372;2022-08-24T04:16:11;5.20;;;2.90;;
73276;SDS011;61501;43.316;5.372;2022-08-24T04:18:38;5.45;;;3.00;;
73276;SDS011;61501;43.316;5.372;2022-08-24T04:21:04;4.85;;;3.33;;
73276;SDS011;61501;43.316;5.372;2022-08-24T04:23:31;5.82;;;3.13;;
73276;SDS011;61501;43.316;5.372;2022-08-24T04:26:00;3.88;;;2.88;;
73276;SDS011;61501;43.316;5.372;2022-08-24T04:28:28;6.65;;;3.00;;
73276;SDS011;61501;43.316;5.372;2022-08-24T04:30:54;6.13;;;3.53;;
73276;SDS011;61501;43.316;5.372;2022-08-24T04:33:21;6.93;;;2.97;;
73276;SDS011;61501;43.316;5.372;2022-08-24T04:35:47;4.57;;;3.03;;
73276;SDS011;61501;43.316;5.372;2022-08-24T04:38:14;4.53;;;2.63;;
73276;SDS011;61501;43.316;5.372;2022-08-24T04:40:41;4.78;;;2.78;;
73276;SDS011;61501;43.316;5.372;2022-08-24T04:43:08;6.93;;;2.78;;
73276;SDS011;61501;43.316;5.372;2022-08-24T04:45:39;5.38;;;2.80;;
73276;SDS011;61501;43.316;5.372;2022-08-24T04:48:05;5.15;;;2.80;;
73276;SDS011;61501;43.316;5.372;2022-08-24T04:50:34;6.35;;;3.20;;
73276;SDS011;61501;43.316;5.372;2022-08-24T04:53:01;7.38;;;3.75;;
73276;SDS011;61501;43.316;5.372;2022-08-24T04:55:28;6.22;;;3.35;;
73276;SDS011;61501;43.316;5.372;2022-08-24T04:57:54;4.85;;;3.33;;
73276;SDS011;61501;43.316;5.372;2022-08-24T05:00:20;6.75;;;3.55;;
73276;SDS011;61501;43.316;5.372;2022-08-24T05:02:47;6.30;;;3.83;;
73276;SDS011;61501;43.316;5.372;2022-08-24T05:05:13;6.18;;;4.28;;
73276;SDS011;61501;43.316;5.372;2022-08-24T05:07:39;6.82;;;3.70;;
73276;SDS011;61501;43.316;5.372;2022-08-24T05:10:06;8.80;;;4.32;;
73276;SDS011;61501;43.316;5.372;2022-08-24T05:12:32;7.40;;;4.07;;
73276;SDS011;61501;43.316;5.372;2022-08-24T05:14:58;9.77;;;4.18;;
73276;SDS011;61501;43.316;5.372;2022-08-24T05:17:25;7.47;;;4.43;;
73276;SDS011;61501;43.316;5.372;2022-08-24T05:19:51;10.02;;;3.78;;
73276;SDS011;61501;43.316;5.372;2022-08-24T05:22:18;10.43;;;3.95;;
73276;SDS011;61501;43.316;5.372;2022-08-24T05:24:44;7.85;;;3.65;;
73276;SDS011;61501;43.316;5.372;2022-08-24T05:27:10;6.63;;;3.58;;
73276;SDS011;61501;43.316;5.372;2022-08-24T05:29:37;4.30;;;3.10;;
73276;SDS011;61501;43.316;5.372;2022-08-24T05:32:03;5.38;;;2.78;;
73276;SDS011;61501;43.316;5.372;2022-08-24T05:34:29;5.15;;;3.40;;
73276;SDS011;61501;43.316;5.372;2022-08-24T05:36:55;8.02;;;3.25;;
73276;SDS011;61501;43.316;5.372;2022-08-24T05:39:21;5.22;;;2.90;;
73276;SDS011;61501;43.316;5.372;2022-08-24T05:41:47;8.38;;;4.55;;
73276;SDS011;61501;43.316;5.372;2022-08-24T05:44:14;5.35;;;3.65;;
73276;SDS011;61501;43.316;5.372;2022-08-24T05:46:40;6.63;;;3.58;;
73276;SDS011;61501;43.316;5.372;2022-08-24T05:49:07;7.93;;;3.60;;
73276;SDS011;61501;43.316;5.372;2022-08-24T05:51:33;6.55;;;3.88;;
73276;SDS011;61501;43.316;5.372;2022-08-24T05:53:59;15.75;;;4.05;;
73276;SDS011;61501;43.316;5.372;2022-08-24T05:56:28;13.23;;;4.43;;
73276;SDS011;61501;43.316;5.372;2022-08-24T05:58:54;14.00;;;4.30;;
73276;SDS011;61501;43.316;5.372;2022-08-24T06:01:21;9.80;;;4.15;;
73276;SDS011;61501;43.316;5.372;2022-08-24T06:03:48;9.18;;;3.60;;
73276;SDS011;61501;43.316;5.372;2022-08-24T06:06:15;11.30;;;4.30;;
73276;SDS011;61501;43.316;5.372;2022-08-24T06:08:43;13.68;;;4.32;;
73276;SDS011;61501;43.316;5.372;2022-08-24T06:11:10;15.52;;;5.10;;
73276;SDS011;61501;43.316;5.372;2022-08-24T06:13:37;14.45;;;4.20;;
73276;SDS011;61501;43.316;5.372;2022-08-24T06:16:10;10.07;;;4.18;;
73276;SDS011;61501;43.316;5.372;2022-08-24T06:18:37;11.00;;;3.97;;
73276;SDS011;61501;43.316;5.372;2022-08-24T06:21:04;16.55;;;4.30;;
73276;SDS011;61501;43.316;5.372;2022-08-24T06:23:30;12.52;;;3.33;;
73276;SDS011;61501;43.316;5.372;2022-08-24T06:25:57;9.73;;;3.80;;
73276;SDS011;61501;43.316;5.372;2022-08-24T06:28:42;11.25;;;3.90;;
73276;SDS011;61501;43.316;5.372;2022-08-24T06:31:08;8.98;;;3.63;;
73276;SDS011;61501;43.316;5.372;2022-08-24T06:33:34;8.63;;;3.97;;
73276;SDS011;61501;43.316;5.372;2022-08-24T06:36:00;12.13;;;4.28;;
73276;SDS011;61501;43.316;5.372;2022-08-24T06:38:26;11.15;;;4.13;;
73276;SDS011;61501;43.316;5.372;2022-08-24T06:40:52;12.18;;;4.10;;
73276;SDS011;61501;43.316;5.372;2022-08-24T06:43:18;9.75;;;4.07;;
73276;SDS011;61501;43.316;5.372;2022-08-24T06:45:44;8.55;;;3.25;;
73276;SDS011;61501;43.316;5.372;2022-08-24T06:48:11;9.02;;;3.33;;
73276;SDS011;61501;43.316;5.372;2022-08-24T06:50:37;8.65;;;3.58;;
73276;SDS011;61501;43.316;5.372;2022-08-24T06:53:04;8.15;;;3.65;;
73276;SDS011;61501;43.316;5.372;2022-08-24T06:55:30;12.05;;;4.60;;
73276;SDS011;61501;43.316;5.372;2022-08-24T06:57:56;8.35;;;4.63;;
73276;SDS011;61501;43.316;5.372;2022-08-24T07:00:22;5.47;;;3.95;;
73276;SDS011;61501;43.316;5.372;2022-08-24T07:02:49;7.82;;;3.72;;
73276;SDS011;61501;43.316;5.372;2022-08-24T07:05:15;8.80;;;3.50;;
73276;SDS011;61501;43.316;5.372;2022-08-24T07:07:42;7.70;;;4.18;;
73276;SDS011;61501;43.316;5.372;2022-08-24T07:10:08;7.30;;;3.78;;
73276;SDS011;61501;43.316;5.372;2022-08-24T07:12:35;7.40;;;3.70;;
73276;SDS011;61501;43.316;5.372;2022-08-24T07:15:02;6.55;;;3.53;;
73276;SDS011;61501;43.316;5.372;2022-08-24T07:17:28;9.38;;;3.53;;
73276;SDS011;61501;43.316;5.372;2022-08-24T07:19:54;9.55;;;3.70;;
73276;SDS011;61501;43.316;5.372;2022-08-24T07:22:20;7.57;;;3.78;;
73276;SDS011;61501;43.316;5.372;2022-08-24T07:24:46;7.80;;;3.10;;
73276;SDS011;61501;43.316;5.372;2022-08-24T07:27:12;7.40;;;3.10;;
73276;SDS011;61501;43.316;5.372;2022-08-24T07:29:39;9.27;;;5.00;;
73276;SDS011;61501;43.316;5.372;2022-08-24T07:32:05;7.30;;;3.55;;
73276;SDS011;61501;43.316;5.372;2022-08-24T07:34:31;6.57;;;3.20;;
73276;SDS011;61501;43.316;5.372;2022-08-24T07:36:57;4.82;;;3.20;;
73276;SDS011;61501;43.316;5.372;2022-08-24T07:39:25;7.70;;;3.53;;
73276;SDS011;61501;43.316;5.372;2022-08-24T07:41:51;6.53;;;3.42;;
73276;SDS011;61501;43.316;5.372;2022-08-24T07:44:17;5.45;;;3.10;;
73276;SDS011;61501;43.316;5.372;2022-08-24T07:46:43;6.45;;;3.42;;
73276;SDS011;61501;43.316;5.372;2022-08-24T07:49:10;6.57;;;3.20;;
73276;SDS011;61501;43.316;5.372;2022-08-24T07:51:36;10.02;;;2.75;;
73276;SDS011;61501;43.316;5.372;2022-08-24T07:54:02;15.10;;;4.53;;
73276;SDS011;61501;43.316;5.372;2022-08-24T07:56:28;14.18;;;5.00;;
73276;SDS011;61501;43.316;5.372;2022-08-24T07:58:55;16.15;;;5.15;;
73276;SDS011;61501;43.316;5.372;2022-08-24T08:01:21;12.77;;;5.53;;
73276;SDS011;61501;43.316;5.372;2022-08-24T08:03:48;21.77;;;6.03;;
73276;SDS011;61501;43.316;5.372;2022-08-24T08:06:14;18.48;;;5.97;;
73276;SDS011;61501;43.316;5.372;2022-08-24T08:08:41;11.60;;;5.05;;
73276;SDS011;61501;43.316;5.372;2022-08-24T08:11:07;9.60;;;3.65;;
73276;SDS011;61501;43.316;5.372;2022-08-24T08:13:34;11.48;;;4.07;;
73276;SDS011;61501;43.316;5.372;2022-08-24T08:16:01;12.50;;;4.00;;
73276;SDS011;61501;43.316;5.372;2022-08-24T08:18:28;8.52;;;3.72;;
73276;SDS011;61501;43.316;5.372;2022-08-24T08:20:55;9.85;;;4.20;;
73276;SDS011;61501;43.316;5.372;2022-08-24T08:23:21;10.00;;;4.60;;
73276;SDS011;61501;43.316;5.372;2022-08-24T08:26:06;8.60;;;4.03;;
73276;SDS011;61501;43.316;5.372;2022-08-24T08:28:32;5.38;;;3.60;;
73276;SDS011;61501;43.316;5.372;2022-08-24T08:31:02;10.90;;;4.15;;
73276;SDS011;61501;43.316;5.372;2022-08-24T08:33:28;9.27;;;3.60;;
73276;SDS011;61501;43.316;5.372;2022-08-24T08:35:59;13.00;;;4.20;;
73276;SDS011;61501;43.316;5.372;2022-08-24T08:38:27;10.40;;;4.00;;
73276;SDS011;61501;43.316;5.372;2022-08-24T08:40:57;9.93;;;4.18;;
73276;SDS011;61501;43.316;5.372;2022-08-24T09:06:35;5.03;;;2.90;;
73276;SDS011;61501;43.316;5.372;2022-08-24T09:09:10;8.95;;;3.15;;
73276;SDS011;61501;43.316;5.372;2022-08-24T09:14:31;5.22;;;2.80;;
73276;SDS011;61501;43.316;5.372;2022-08-24T09:35:09;8.02;;;4.80;;
73276;SDS011;61501;43.316;5.372;2022-08-24T09:40:27;11.43;;;4.70;;
73276;SDS011;61501;43.316;5.372;2022-08-24T09:45:42;10.85;;;3.90;;
73276;SDS011;61501;43.316;5.372;2022-08-24T09:59:34;6.18;;;3.22;;
73276;SDS011;61501;43.316;5.372;2022-08-24T10:09:44;5.70;;;3.25;;
73276;SDS011;61501;43.316;5.372;2022-08-24T10:12:17;5.15;;;2.83;;
73276;SDS011;61501;43.316;5.372;2022-08-24T10:27:22;3.45;;;2.95;;
73276;SDS011;61501;43.316;5.372;2022-08-24T10:35:13;7.47;;;3.10;;
73276;SDS011;61501;43.316;5.372;2022-08-24T10:40:51;4.00;;;3.17;;
73276;SDS011;61501;43.316;5.372;2022-08-24T10:51:10;6.38;;;2.53;;
73276;SDS011;61501;43.316;5.372;2022-08-24T10:53:46;6.47;;;2.95;;
73276;SDS011;61501;43.316;5.372;2022-08-24T10:56:14;3.72;;;2.63;;
73276;SDS011;61501;43.316;5.372;2022-08-24T11:03:49;5.32;;;2.78;;
73276;SDS011;61501;43.316;5.372;2022-08-24T11:06:17;3.97;;;2.40;;
73276;SDS011;61501;43.316;5.372;2022-08-24T11:08:50;4.25;;;2.38;;
73276;SDS011;61501;43.316;5.372;2022-08-24T11:11:27;8.52;;;2.78;;
73276;SDS011;61501;43.316;5.372;2022-08-24T11:13:58;4.63;;;2.78;;
73276;SDS011;61501;43.316;5.372;2022-08-24T11:16:35;3.80;;;2.97;;
73276;SDS011;61501;43.316;5.372;2022-08-24T11:19:04;6.28;;;3.10;;
73276;SDS011;61501;43.316;5.372;2022-08-24T11:24:00;5.28;;;2.78;;
73276;SDS011;61501;43.316;5.372;2022-08-24T11:26:26;4.47;;;2.78;;
73276;SDS011;61501;43.316;5.372;2022-08-24T11:28:56;4.88;;;2.88;;
73276;SDS011;61501;43.316;5.372;2022-08-24T11:31:30;4.15;;;2.95;;
73276;SDS011;61501;43.316;5.372;2022-08-24T11:33:58;8.52;;;3.30;;
73276;SDS011;61501;43.316;5.372;2022-08-24T11:36:26;4.68;;;2.95;;
73276;SDS011;61501;43.316;5.372;2022-08-24T11:39:37;3.78;;;2.38;;
73276;SDS011;61501;43.316;5.372;2022-08-24T11:44:39;5.32;;;2.50;;
73276;SDS011;61501;43.316;5.372;2022-08-24T11:50:16;5.75;;;3.00;;
73276;SDS011;61501;43.316;5.372;2022-08-24T11:55:01;3.97;;;2.53;;
73276;SDS011;61501;43.316;5.372;2022-08-24T11:57:29;5.65;;;3.10;;
73276;SDS011;61501;43.316;5.372;2022-08-24T12:02:34;6.75;;;3.05;;
73276;SDS011;61501;43.316;5.372;2022-08-24T12:05:11;7.93;;;2.70;;
73276;SDS011;61501;43.316;5.372;2022-08-24T12:18:23;5.10;;;2.42;;
73276;SDS011;61501;43.316;5.372;2022-08-24T12:20:52;7.47;;;2.90;;
73276;SDS011;61501;43.316;5.372;2022-08-24T12:26:00;5.03;;;2.85;;
73276;SDS011;61501;43.316;5.372;2022-08-24T12:31:02;2.90;;;2.45;;
73276;SDS011;61501;43.316;5.372;2022-08-24T12:33:32;5.15;;;2.72;;
73276;SDS011;61501;43.316;5.372;2022-08-24T12:36:00;4.72;;;2.63;;
73276;SDS011;61501;43.316;5.372;2022-08-24T12:38:28;5.63;;;2.83;;
73276;SDS011;61501;43.316;5.372;2022-08-24T12:40:58;3.97;;;2.38;;
73276;SDS011;61501;43.316;5.372;2022-08-24T12:43:41;4.90;;;2.55;;
73276;SDS011;61501;43.316;5.372;2022-08-24T12:46:08;3.00;;;2.50;;
73276;SDS011;61501;43.316;5.372;2022-08-24T12:48:37;3.33;;;2.42;;
73276;SDS011;61501;43.316;5.372;2022-08-24T13:01:23;3.00;;;2.20;;
73276;SDS011;61501;43.316;5.372;2022-08-24T13:06:46;3.97;;;2.25;;
73276;SDS011;61501;43.316;5.372;2022-08-24T13:09:16;6.45;;;2.40;;
73276;SDS011;61501;43.316;5.372;2022-08-24T13:11:50;3.20;;;2.38;;
73276;SDS011;61501;43.316;5.372;2022-08-24T13:14:20;3.72;;;2.08;;
73276;SDS011;61501;43.316;5.372;2022-08-24T13:19:15;2.78;;;1.92;;
73276;SDS011;61501;43.316;5.372;2022-08-24T13:21:43;5.63;;;2.25;;
73276;SDS011;61501;43.316;5.372;2022-08-24T13:26:58;3.70;;;2.08;;
73276;SDS011;61501;43.316;5.372;2022-08-24T13:29:45;3.90;;;2.10;;
73276;SDS011;61501;43.316;5.372;2022-08-24T13:32:15;3.22;;;1.98;;
73276;SDS011;61501;43.316;5.372;2022-08-24T13:34:44;3.60;;;2.20;;
73276;SDS011;61501;43.316;5.372;2022-08-24T13:42:37;2.20;;;1.90;;
73276;SDS011;61501;43.316;5.372;2022-08-24T13:58:45;2.97;;;2.15;;
73276;SDS011;61501;43.316;5.372;2022-08-24T14:01:17;3.25;;;2.00;;
73276;SDS011;61501;43.316;5.372;2022-08-24T14:11:35;4.60;;;2.05;;
73276;SDS011;61501;43.316;5.372;2022-08-24T14:22:32;3.13;;;2.10;;
73276;SDS011;61501;43.316;5.372;2022-08-24T14:25:19;4.32;;;2.20;;
73276;SDS011;61501;43.316;5.372;2022-08-24T14:32:42;4.10;;;1.90;;
73276;SDS011;61501;43.316;5.372;2022-08-24T14:35:21;5.68;;;2.30;;
73276;SDS011;61501;43.316;5.372;2022-08-24T14:45:52;2.15;;;1.77;;
73276;SDS011;61501;43.316;5.372;2022-08-24T14:48:32;2.53;;;1.83;;
73276;SDS011;61501;43.316;5.372;2022-08-24T14:56:16;3.90;;;1.98;;
73276;SDS011;61501;43.316;5.372;2022-08-24T15:01:34;4.53;;;1.98;;
73276;SDS011;61501;43.316;5.372;2022-08-24T15:06:46;2.58;;;1.50;;
73276;SDS011;61501;43.316;5.372;2022-08-24T15:11:44;3.05;;;1.70;;
73276;SDS011;61501;43.316;5.372;2022-08-24T15:14:25;3.47;;;1.90;;
73276;SDS011;61501;43.316;5.372;2022-08-24T15:16:59;4.10;;;2.00;;
73276;SDS011;61501;43.316;5.372;2022-08-24T15:22:20;4.45;;;2.00;;
73276;SDS011;61501;43.316;5.372;2022-08-24T15:25:02;3.05;;;2.00;;
73276;SDS011;61501;43.316;5.372;2022-08-24T15:30:05;4.38;;;2.20;;
73276;SDS011;61501;43.316;5.372;2022-08-24T15:32:44;3.00;;;2.20;;
73276;SDS011;61501;43.316;5.372;2022-08-24T15:37:47;3.58;;;2.45;;
73276;SDS011;61501;43.316;5.372;2022-08-24T15:40:21;3.42;;;1.98;;
73276;SDS011;61501;43.316;5.372;2022-08-24T15:42:48;3.17;;;2.20;;
73276;SDS011;61501;43.316;5.372;2022-08-24T15:45:15;3.85;;;2.17;;
73276;SDS011;61501;43.316;5.372;2022-08-24T15:47:44;3.45;;;1.80;;
73276;SDS011;61501;43.316;5.372;2022-08-24T15:55:48;4.40;;;2.40;;
73276;SDS011;61501;43.316;5.372;2022-08-24T15:58:24;3.25;;;2.28;;
73276;SDS011;61501;43.316;5.372;2022-08-24T16:00:52;6.07;;;3.08;;
73276;SDS011;61501;43.316;5.372;2022-08-24T16:06:22;4.53;;;2.37;;
73276;SDS011;61501;43.316;5.372;2022-08-24T16:08:53;5.35;;;2.45;;
73276;SDS011;61501;43.316;5.372;2022-08-24T16:11:25;4.75;;;2.10;;
73276;SDS011;61501;43.316;5.372;2022-08-24T16:13:52;5.53;;;2.03;;
73276;SDS011;61501;43.316;5.372;2022-08-24T16:16:29;7.15;;;2.78;;
73276;SDS011;61501;43.316;5.372;2022-08-24T16:18:57;4.50;;;2.30;;
73276;SDS011;61501;43.316;5.372;2022-08-24T16:24:39;5.40;;;2.58;;
73276;SDS011;61501;43.316;5.372;2022-08-24T16:34:42;7.93;;;5.60;;
73276;SDS011;61501;43.316;5.372;2022-08-24T16:37:08;6.80;;;3.40;;
73276;SDS011;61501;43.316;5.372;2022-08-24T16:39:35;6.50;;;4.00;;
73276;SDS011;61501;43.316;5.372;2022-08-24T16:42:03;6.00;;;3.58;;
73276;SDS011;61501;43.316;5.372;2022-08-24T16:44:34;4.78;;;3.60;;
73276;SDS011;61501;43.316;5.372;2022-08-24T16:47:01;7.82;;;3.90;;
73276;SDS011;61501;43.316;5.372;2022-08-24T16:49:30;6.80;;;4.00;;
73276;SDS011;61501;43.316;5.372;2022-08-24T16:51:57;4.35;;;3.40;;
73276;SDS011;61501;43.316;5.372;2022-08-24T16:54:23;11.23;;;3.15;;
73276;SDS011;61501;43.316;5.372;2022-08-24T16:56:50;5.75;;;2.75;;
73276;SDS011;61501;43.316;5.372;2022-08-24T16:59:23;4.20;;;2.13;;
73276;SDS011;61501;43.316;5.372;2022-08-24T17:01:50;4.72;;;3.05;;
73276;SDS011;61501;43.316;5.372;2022-08-24T17:04:16;6.28;;;2.60;;
73276;SDS011;61501;43.316;5.372;2022-08-24T17:06:42;3.97;;;2.50;;
73276;SDS011;61501;43.316;5.372;2022-08-24T17:09:08;5.70;;;2.35;;
73276;SDS011;61501;43.316;5.372;2022-08-24T17:11:35;4.30;;;2.20;;
73276;SDS011;61501;43.316;5.372;2022-08-24T17:14:01;4.57;;;2.17;;
73276;SDS011;61501;43.316;5.372;2022-08-24T17:16:27;3.45;;;1.83;;
73276;SDS011;61501;43.316;5.372;2022-08-24T17:18:55;3.92;;;1.92;;
73276;SDS011;61501;43.316;5.372;2022-08-24T17:21:22;3.15;;;2.00;;
73276;SDS011;61501;43.316;5.372;2022-08-24T17:23:48;4.80;;;1.85;;
73276;SDS011;61501;43.316;5.372;2022-08-24T17:26:15;6.22;;;2.10;;
73276;SDS011;61501;43.316;5.372;2022-08-24T17:28:42;3.25;;;1.90;;
73276;SDS011;61501;43.316;5.372;2022-08-24T17:31:11;4.55;;;2.05;;
73276;SDS011;61501;43.316;5.372;2022-08-24T17:33:37;4.53;;;2.00;;
73276;SDS011;61501;43.316;5.372;2022-08-24T17:36:03;3.83;;;1.90;;
73276;SDS011;61501;43.316;5.372;2022-08-24T17:38:29;2.83;;;1.90;;
73276;SDS011;61501;43.316;5.372;2022-08-24T17:40:56;3.38;;;1.95;;
73276;SDS011;61501;43.316;5.372;2022-08-24T17:43:22;3.90;;;1.95;;
73276;SDS011;61501;43.316;5.372;2022-08-24T17:45:49;5.05;;;2.10;;
73276;SDS011;61501;43.316;5.372;2022-08-24T17:48:19;5.22;;;2.20;;
73276;SDS011;61501;43.316;5.372;2022-08-24T17:50:47;5.90;;;2.40;;
73276;SDS011;61501;43.316;5.372;2022-08-24T17:53:13;4.15;;;2.10;;
73276;SDS011;61501;43.316;5.372;2022-08-24T17:55:39;3.72;;;1.95;;
73276;SDS011;61501;43.316;5.372;2022-08-24T17:58:05;6.85;;;2.05;;
73276;SDS011;61501;43.316;5.372;2022-08-24T18:00:31;5.93;;;2.65;;
73276;SDS011;61501;43.316;5.372;2022-08-24T18:02:57;4.97;;;2.25;;
73276;SDS011;61501;43.316;5.372;2022-08-24T18:05:23;3.30;;;2.00;;
73276;SDS011;61501;43.316;5.372;2022-08-24T18:07:50;4.20;;;2.00;;
73276;SDS011;61501;43.316;5.372;2022-08-24T18:10:22;5.82;;;1.83;;
73276;SDS011;61501;43.316;5.372;2022-08-24T18:12:48;2.22;;;1.75;;
73276;SDS011;61501;43.316;5.372;2022-08-24T18:15:14;4.43;;;2.00;;
73276;SDS011;61501;43.316;5.372;2022-08-24T18:17:41;3.38;;;1.90;;
73276;SDS011;61501;43.316;5.372;2022-08-24T18:20:09;5.38;;;2.03;;
73276;SDS011;61501;43.316;5.372;2022-08-24T18:22:35;7.47;;;2.05;;
73276;SDS011;61501;43.316;5.372;2022-08-24T18:25:08;4.40;;;1.90;;
73276;SDS011;61501;43.316;5.372;2022-08-24T18:27:34;6.07;;;2.28;;
73276;SDS011;61501;43.316;5.372;2022-08-24T18:30:02;5.15;;;2.33;;
73276;SDS011;61501;43.316;5.372;2022-08-24T18:32:28;3.42;;;2.30;;
73276;SDS011;61501;43.316;5.372;2022-08-24T18:34:54;6.15;;;2.25;;
73276;SDS011;61501;43.316;5.372;2022-08-24T18:37:20;5.10;;;3.05;;
73276;SDS011;61501;43.316;5.372;2022-08-24T18:39:48;6.40;;;2.60;;
73276;SDS011;61501;43.316;5.372;2022-08-24T18:42:14;7.05;;;2.42;;
73276;SDS011;61501;43.316;5.372;2022-08-24T18:44:40;6.25;;;2.33;;
73276;SDS011;61501;43.316;5.372;2022-08-24T18:47:06;6.20;;;3.47;;
73276;SDS011;61501;43.316;5.372;2022-08-24T18:49:32;6.15;;;2.50;;